sensor_id;sensor_type;location;lat;lon;timestamp;temperature;humidity
41939;DHT22;23057;48.554;14.454;2023-02-21T00:00:52;5.40;99.90
41939;DHT22;23057;48.554;14.454;2023-02-21T00:03:41;5.30;99.90
41939;DHT22;23057;48.554;14.454;2023-02-21T00:06:31;5.70;99.90
41939;DHT22;23057;48.554;14.454;2023-02-21T00:09:20;5.90;99.90
41939;DHT22;23057;48.554;14.454;2023-02-21T00:12:09;6.00;99.90
41939;DHT22;23057;48.554;14.454;2023-02-21T00:14:58;5.80;99.90
41939;DHT22;23057;48.554;14.454;2023-02-21T00:17:47;5.20;99.90
41939;DHT22;23057;48.554;14.454;2023-02-21T00:20:36;4.90;1.00
41939;DHT22;23057;48.554;14.454;2023-02-21T00:23:26;4.70;1.00
41939;DHT22;23057;48.554;14.454;2023-02-21T00:26:18;4.40;18.60
41939;DHT22;23057;48.554;14.454;2023-02-21T00:29:09;4.40;99.90
41939;DHT22;23057;48.554;14.454;2023-02-21T00:31:58;4.50;99.90
41939;DHT22;23057;48.554;14.454;2023-02-21T00:34:47;4.30;99.90
41939;DHT22;23057;48.554;14.454;2023-02-21T00:37:36;4.20;99.90
41939;DHT22;23057;48.554;14.454;2023-02-21T00:40:26;4.20;99.90
41939;DHT22;23057;48.554;14.454;2023-02-21T00:43:15;4.30;99.90
41939;DHT22;23057;48.554;14.454;2023-02-21T00:46:04;4.50;99.90
41939;DHT22;23057;48.554;14.454;2023-02-21T00:48:53;4.50;99.90
41939;DHT22;23057;48.554;14.454;2023-02-21T00:51:42;4.50;99.90
41939;DHT22;23057;48.554;14.454;2023-02-21T00:54:32;4.40;99.90
41939;DHT22;23057;48.554;14.454;2023-02-21T00:57:22;4.60;99.90
41939;DHT22;23057;48.554;14.454;2023-02-21T01:00:16;4.50;99.90
41939;DHT22;23057;48.554;14.454;2023-02-21T01:03:09;4.30;99.90
41939;DHT22;23057;48.554;14.454;2023-02-21T01:05:59;4.10;99.90
41939;DHT22;23057;48.554;14.454;2023-02-21T01:08:48;4.10;99.90
41939;DHT22;23057;48.554;14.454;2023-02-21T01:11:37;4.10;99.90
41939;DHT22;23057;48.554;14.454;2023-02-21T01:14:26;4.00;99.90
41939;DHT22;23057;48.554;14.454;2023-02-21T01:17:15;4.20;99.90
41939;DHT22;23057;48.554;14.454;2023-02-21T01:20:05;4.20;99.90
41939;DHT22;23057;48.554;14.454;2023-02-21T01:22:54;4.10;99.90
41939;DHT22;23057;48.554;14.454;2023-02-21T01:25:43;4.00;99.90
41939;DHT22;23057;48.554;14.454;2023-02-21T01:28:33;3.90;99.90
41939;DHT22;23057;48.554;14.454;2023-02-21T01:31:22;3.90;99.90
41939;DHT22;23057;48.554;14.454;2023-02-21T01:34:11;3.90;1.00
41939;DHT22;23057;48.554;14.454;2023-02-21T01:37:00;3.90;1.00
41939;DHT22;23057;48.554;14.454;2023-02-21T01:39:49;3.80;1.00
41939;DHT22;23057;48.554;14.454;2023-02-21T01:42:39;3.60;1.00
41939;DHT22;23057;48.554;14.454;2023-02-21T01:48:21;3.60;98.20
41939;DHT22;23057;48.554;14.454;2023-02-21T01:51:15;3.60;99.90
41939;DHT22;23057;48.554;14.454;2023-02-21T01:54:11;3.60;99.90
41939;DHT22;23057;48.554;14.454;2023-02-21T01:57:01;3.70;99.90
41939;DHT22;23057;48.554;14.454;2023-02-21T01:59:54;3.70;99.90
41939;DHT22;23057;48.554;14.454;2023-02-21T02:02:56;3.80;99.90
41939;DHT22;23057;48.554;14.454;2023-02-21T02:05:49;3.80;99.90
41939;DHT22;23057;48.554;14.454;2023-02-21T02:08:48;3.70;99.90
41939;DHT22;23057;48.554;14.454;2023-02-21T02:12:01;3.60;99.90
41939;DHT22;23057;48.554;14.454;2023-02-21T02:15:01;3.70;1.00
41939;DHT22;23057;48.554;14.454;2023-02-21T02:36:26;4.70;99.90
41939;DHT22;23057;48.554;14.454;2023-02-21T02:38:35;4.70;99.90
41939;DHT22;23057;48.554;14.454;2023-02-21T02:44:55;4.50;99.90
41939;DHT22;23057;48.554;14.454;2023-02-21T02:47:35;4.50;99.90
41939;DHT22;23057;48.554;14.454;2023-02-21T02:50:09;4.50;99.90
41939;DHT22;23057;48.554;14.454;2023-02-21T02:52:49;4.50;99.90
41939;DHT22;23057;48.554;14.454;2023-02-21T02:58:28;4.60;99.90
41939;DHT22;23057;48.554;14.454;2023-02-21T03:03:54;4.60;99.90
41939;DHT22;23057;48.554;14.454;2023-02-21T03:06:53;4.60;99.90
41939;DHT22;23057;48.554;14.454;2023-02-21T03:12:54;4.50;99.90
41939;DHT22;23057;48.554;14.454;2023-02-21T03:18:28;4.30;1.00
41939;DHT22;23057;48.554;14.454;2023-02-21T03:21:08;4.30;1.00
41939;DHT22;23057;48.554;14.454;2023-02-21T03:23:47;4.30;1.00
41939;DHT22;23057;48.554;14.454;2023-02-21T03:26:22;4.30;1.00
41939;DHT22;23057;48.554;14.454;2023-02-21T03:28:57;4.30;1.00
41939;DHT22;23057;48.554;14.454;2023-02-21T03:31:29;4.30;48.50
41939;DHT22;23057;48.554;14.454;2023-02-21T03:34:10;4.30;84.70
41939;DHT22;23057;48.554;14.454;2023-02-21T03:36:41;4.30;99.90
41939;DHT22;23057;48.554;14.454;2023-02-21T03:39:13;4.20;99.90
41939;DHT22;23057;48.554;14.454;2023-02-21T03:41:44;4.20;99.90
41939;DHT22;23057;48.554;14.454;2023-02-21T03:44:15;4.20;99.90
41939;DHT22;23057;48.554;14.454;2023-02-21T03:46:45;4.20;99.90
41939;DHT22;23057;48.554;14.454;2023-02-21T03:49:16;4.20;99.90
41939;DHT22;23057;48.554;14.454;2023-02-21T03:51:47;4.20;99.90
41939;DHT22;23057;48.554;14.454;2023-02-21T03:54:17;4.20;99.90
41939;DHT22;23057;48.554;14.454;2023-02-21T03:56:48;4.10;99.90
41939;DHT22;23057;48.554;14.454;2023-02-21T03:59:19;4.10;99.90
41939;DHT22;23057;48.554;14.454;2023-02-21T04:01:50;4.10;99.90
41939;DHT22;23057;48.554;14.454;2023-02-21T04:04:20;4.00;99.90
41939;DHT22;23057;48.554;14.454;2023-02-21T04:06:51;4.00;99.90
41939;DHT22;23057;48.554;14.454;2023-02-21T04:09:22;4.00;99.90
41939;DHT22;23057;48.554;14.454;2023-02-21T04:11:55;4.00;99.90
41939;DHT22;23057;48.554;14.454;2023-02-21T04:14:25;4.00;99.90
41939;DHT22;23057;48.554;14.454;2023-02-21T04:16:56;4.00;99.90
41939;DHT22;23057;48.554;14.454;2023-02-21T04:19:27;4.00;99.90
41939;DHT22;23057;48.554;14.454;2023-02-21T04:21:57;4.10;99.90
41939;DHT22;23057;48.554;14.454;2023-02-21T04:24:28;4.10;99.90
41939;DHT22;23057;48.554;14.454;2023-02-21T04:26:59;4.10;99.90
41939;DHT22;23057;48.554;14.454;2023-02-21T04:29:31;4.00;99.90
41939;DHT22;23057;48.554;14.454;2023-02-21T04:32:02;4.10;99.90
41939;DHT22;23057;48.554;14.454;2023-02-21T04:34:33;4.10;99.90
41939;DHT22;23057;48.554;14.454;2023-02-21T04:37:04;4.10;99.90
41939;DHT22;23057;48.554;14.454;2023-02-21T04:39:34;4.10;99.90
41939;DHT22;23057;48.554;14.454;2023-02-21T04:42:05;4.00;99.90
41939;DHT22;23057;48.554;14.454;2023-02-21T04:44:37;4.10;99.90
41939;DHT22;23057;48.554;14.454;2023-02-21T04:47:08;4.00;99.90
41939;DHT22;23057;48.554;14.454;2023-02-21T04:49:38;4.00;99.90
41939;DHT22;23057;48.554;14.454;2023-02-21T04:52:09;4.00;99.90
41939;DHT22;23057;48.554;14.454;2023-02-21T04:54:40;4.00;99.90
41939;DHT22;23057;48.554;14.454;2023-02-21T04:57:11;3.90;99.90
41939;DHT22;23057;48.554;14.454;2023-02-21T04:59:42;3.90;99.90
41939;DHT22;23057;48.554;14.454;2023-02-21T05:02:12;4.00;99.90
41939;DHT22;23057;48.554;14.454;2023-02-21T05:04:43;4.00;99.90
41939;DHT22;23057;48.554;14.454;2023-02-21T05:07:14;3.90;99.90
41939;DHT22;23057;48.554;14.454;2023-02-21T05:09:45;3.90;99.90
41939;DHT22;23057;48.554;14.454;2023-02-21T05:12:16;3.90;99.90
41939;DHT22;23057;48.554;14.454;2023-02-21T05:14:46;3.80;99.90
41939;DHT22;23057;48.554;14.454;2023-02-21T05:17:17;3.80;99.90
41939;DHT22;23057;48.554;14.454;2023-02-21T05:19:48;3.80;99.90
41939;DHT22;23057;48.554;14.454;2023-02-21T05:22:19;3.80;99.90
41939;DHT22;23057;48.554;14.454;2023-02-21T05:24:50;3.90;99.90
41939;DHT22;23057;48.554;14.454;2023-02-21T05:27:23;3.80;99.90
41939;DHT22;23057;48.554;14.454;2023-02-21T05:29:53;3.80;99.90
41939;DHT22;23057;48.554;14.454;2023-02-21T05:32:24;3.80;99.90
41939;DHT22;23057;48.554;14.454;2023-02-21T05:34:58;3.80;99.90
41939;DHT22;23057;48.554;14.454;2023-02-21T05:37:29;3.70;99.90
41939;DHT22;23057;48.554;14.454;2023-02-21T05:40:00;3.60;99.90
41939;DHT22;23057;48.554;14.454;2023-02-21T05:42:31;3.60;99.90
41939;DHT22;23057;48.554;14.454;2023-02-21T05:45:02;3.50;99.90
41939;DHT22;23057;48.554;14.454;2023-02-21T05:47:36;3.50;99.90
41939;DHT22;23057;48.554;14.454;2023-02-21T05:50:06;3.60;99.90
41939;DHT22;23057;48.554;14.454;2023-02-21T05:52:37;3.60;99.90
41939;DHT22;23057;48.554;14.454;2023-02-21T05:55:09;3.50;99.90
41939;DHT22;23057;48.554;14.454;2023-02-21T05:57:41;3.50;99.90
41939;DHT22;23057;48.554;14.454;2023-02-21T06:00:14;3.50;99.90
41939;DHT22;23057;48.554;14.454;2023-02-21T06:02:48;3.40;99.90
41939;DHT22;23057;48.554;14.454;2023-02-21T06:05:21;3.50;99.90
41939;DHT22;23057;48.554;14.454;2023-02-21T06:07:52;3.40;99.90
41939;DHT22;23057;48.554;14.454;2023-02-21T06:10:23;3.30;99.90
41939;DHT22;23057;48.554;14.454;2023-02-21T06:12:54;3.30;99.90
41939;DHT22;23057;48.554;14.454;2023-02-21T06:15:25;3.30;99.90
41939;DHT22;23057;48.554;14.454;2023-02-21T06:17:55;3.50;99.90
41939;DHT22;23057;48.554;14.454;2023-02-21T06:20:26;3.70;99.90
41939;DHT22;23057;48.554;14.454;2023-02-21T06:22:57;3.70;99.90
41939;DHT22;23057;48.554;14.454;2023-02-21T06:25:28;4.20;99.90
41939;DHT22;23057;48.554;14.454;2023-02-21T06:27:59;5.40;99.90
41939;DHT22;23057;48.554;14.454;2023-02-21T06:30:29;6.50;99.90
41939;DHT22;23057;48.554;14.454;2023-02-21T06:33:00;6.70;1.00
41939;DHT22;23057;48.554;14.454;2023-02-21T06:35:31;6.30;66.70
41939;DHT22;23057;48.554;14.454;2023-02-21T06:38:02;7.20;1.00
41939;DHT22;23057;48.554;14.454;2023-02-21T06:40:32;7.80;99.90
41939;DHT22;23057;48.554;14.454;2023-02-21T06:43:03;8.50;99.90
41939;DHT22;23057;48.554;14.454;2023-02-21T06:45:34;7.80;99.90
41939;DHT22;23057;48.554;14.454;2023-02-21T06:48:05;7.50;99.90
41939;DHT22;23057;48.554;14.454;2023-02-21T06:50:36;8.40;99.90
41939;DHT22;23057;48.554;14.454;2023-02-21T06:53:07;8.70;99.90
41939;DHT22;23057;48.554;14.454;2023-02-21T06:55:38;9.10;87.90
41939;DHT22;23057;48.554;14.454;2023-02-21T06:58:09;9.50;33.60
41939;DHT22;23057;48.554;14.454;2023-02-21T07:00:40;10.70;1.00
41939;DHT22;23057;48.554;14.454;2023-02-21T07:03:10;10.00;1.00
41939;DHT22;23057;48.554;14.454;2023-02-21T07:05:41;10.10;1.00
41939;DHT22;23057;48.554;14.454;2023-02-21T07:08:13;9.90;1.00
41939;DHT22;23057;48.554;14.454;2023-02-21T07:10:43;9.50;1.00
41939;DHT22;23057;48.554;14.454;2023-02-21T07:13:14;9.40;1.00
41939;DHT22;23057;48.554;14.454;2023-02-21T07:15:45;8.70;1.00
41939;DHT22;23057;48.554;14.454;2023-02-21T07:18:16;7.20;99.90
41939;DHT22;23057;48.554;14.454;2023-02-21T07:20:47;7.00;99.90
41939;DHT22;23057;48.554;14.454;2023-02-21T07:23:18;6.60;99.90
41939;DHT22;23057;48.554;14.454;2023-02-21T07:25:49;6.40;1.00
41939;DHT22;23057;48.554;14.454;2023-02-21T07:28:20;6.60;1.00
41939;DHT22;23057;48.554;14.454;2023-02-21T07:30:51;6.40;1.00
41939;DHT22;23057;48.554;14.454;2023-02-21T07:33:21;6.40;95.50
41939;DHT22;23057;48.554;14.454;2023-02-21T07:35:52;6.30;99.90
41939;DHT22;23057;48.554;14.454;2023-02-21T07:38:24;6.10;99.90
41939;DHT22;23057;48.554;14.454;2023-02-21T07:40:58;6.20;99.90
41939;DHT22;23057;48.554;14.454;2023-02-21T07:43:31;6.20;99.90
41939;DHT22;23057;48.554;14.454;2023-02-21T07:46:02;6.30;1.00
41939;DHT22;23057;48.554;14.454;2023-02-21T07:48:33;6.60;1.00
41939;DHT22;23057;48.554;14.454;2023-02-21T07:51:05;6.50;1.00
41939;DHT22;23057;48.554;14.454;2023-02-21T07:53:38;6.60;1.00
41939;DHT22;23057;48.554;14.454;2023-02-21T07:56:10;6.60;30.00
41939;DHT22;23057;48.554;14.454;2023-02-21T07:58:41;6.70;29.80
41939;DHT22;23057;48.554;14.454;2023-02-21T08:01:11;7.00;79.30
41939;DHT22;23057;48.554;14.454;2023-02-21T08:03:42;7.10;1.00
41939;DHT22;23057;48.554;14.454;2023-02-21T08:06:13;6.90;35.10
41939;DHT22;23057;48.554;14.454;2023-02-21T08:08:44;6.80;99.90
41939;DHT22;23057;48.554;14.454;2023-02-21T08:11:15;7.00;99.90
41939;DHT22;23057;48.554;14.454;2023-02-21T08:13:46;6.90;99.90
41939;DHT22;23057;48.554;14.454;2023-02-21T08:16:16;7.00;99.90
41939;DHT22;23057;48.554;14.454;2023-02-21T08:18:47;7.20;99.90
41939;DHT22;23057;48.554;14.454;2023-02-21T08:21:20;7.30;34.20
41939;DHT22;23057;48.554;14.454;2023-02-21T08:23:51;7.40;1.00
41939;DHT22;23057;48.554;14.454;2023-02-21T08:26:23;7.30;1.00
41939;DHT22;23057;48.554;14.454;2023-02-21T08:28:55;7.50;1.00
41939;DHT22;23057;48.554;14.454;2023-02-21T08:31:25;7.30;1.00
41939;DHT22;23057;48.554;14.454;2023-02-21T08:33:56;7.10;1.00
41939;DHT22;23057;48.554;14.454;2023-02-21T08:36:31;7.00;99.90
41939;DHT22;23057;48.554;14.454;2023-02-21T08:39:07;6.90;99.90
41939;DHT22;23057;48.554;14.454;2023-02-21T08:41:43;6.80;1.00
41939;DHT22;23057;48.554;14.454;2023-02-21T08:44:17;6.80;99.90
41939;DHT22;23057;48.554;14.454;2023-02-21T08:46:50;6.70;99.90
41939;DHT22;23057;48.554;14.454;2023-02-21T08:49:21;6.60;99.90
41939;DHT22;23057;48.554;14.454;2023-02-21T08:51:52;6.60;99.90
41939;DHT22;23057;48.554;14.454;2023-02-21T08:54:24;6.60;99.90
41939;DHT22;23057;48.554;14.454;2023-02-21T08:56:54;6.60;99.90
41939;DHT22;23057;48.554;14.454;2023-02-21T08:59:25;6.60;99.90
41939;DHT22;23057;48.554;14.454;2023-02-21T09:02:02;6.50;99.90
41939;DHT22;23057;48.554;14.454;2023-02-21T09:04:34;6.50;99.90
41939;DHT22;23057;48.554;14.454;2023-02-21T09:07:05;6.50;99.90
41939;DHT22;23057;48.554;14.454;2023-02-21T09:09:38;6.40;99.90
41939;DHT22;23057;48.554;14.454;2023-02-21T09:12:09;6.50;99.90
41939;DHT22;23057;48.554;14.454;2023-02-21T09:14:41;6.60;99.90
41939;DHT22;23057;48.554;14.454;2023-02-21T09:17:13;6.60;99.90
41939;DHT22;23057;48.554;14.454;2023-02-21T09:19:45;6.60;99.90
41939;DHT22;23057;48.554;14.454;2023-02-21T09:22:16;6.60;99.90
41939;DHT22;23057;48.554;14.454;2023-02-21T09:24:47;6.70;99.90
41939;DHT22;23057;48.554;14.454;2023-02-21T09:27:18;6.70;99.90
41939;DHT22;23057;48.554;14.454;2023-02-21T09:29:49;6.80;99.90
41939;DHT22;23057;48.554;14.454;2023-02-21T09:32:20;6.90;99.90
41939;DHT22;23057;48.554;14.454;2023-02-21T09:34:50;6.70;99.90
41939;DHT22;23057;48.554;14.454;2023-02-21T09:37:21;6.90;99.90
41939;DHT22;23057;48.554;14.454;2023-02-21T09:39:52;7.10;99.90
41939;DHT22;23057;48.554;14.454;2023-02-21T09:42:25;7.40;99.90
41939;DHT22;23057;48.554;14.454;2023-02-21T09:45:00;7.60;74.30
41939;DHT22;23057;48.554;14.454;2023-02-21T09:47:32;7.60;19.70
41939;DHT22;23057;48.554;14.454;2023-02-21T09:50:10;7.50;1.00
41939;DHT22;23057;48.554;14.454;2023-02-21T09:52:44;7.90;1.00
41939;DHT22;23057;48.554;14.454;2023-02-21T09:57:56;7.50;99.90
41939;DHT22;23057;48.554;14.454;2023-02-21T10:00:34;7.40;99.90
41939;DHT22;23057;48.554;14.454;2023-02-21T10:08:32;8.10;99.90
41939;DHT22;23057;48.554;14.454;2023-02-21T10:14:37;8.30;1.00
41939;DHT22;23057;48.554;14.454;2023-02-21T10:19:59;8.30;99.90
41939;DHT22;23057;48.554;14.454;2023-02-21T10:22:44;8.50;99.90
41939;DHT22;23057;48.554;14.454;2023-02-21T10:25:29;8.50;99.90
41939;DHT22;23057;48.554;14.454;2023-02-21T10:28:03;8.50;99.90
41939;DHT22;23057;48.554;14.454;2023-02-21T10:30:35;8.70;99.90
41939;DHT22;23057;48.554;14.454;2023-02-21T10:33:10;8.80;74.00
41939;DHT22;23057;48.554;14.454;2023-02-21T10:35:40;8.50;36.20
41939;DHT22;23057;48.554;14.454;2023-02-21T10:38:13;8.60;1.00
41939;DHT22;23057;48.554;14.454;2023-02-21T10:40:50;8.80;1.00
41939;DHT22;23057;48.554;14.454;2023-02-21T10:43:34;8.80;1.00
41939;DHT22;23057;48.554;14.454;2023-02-21T10:49:13;8.90;1.00
41939;DHT22;23057;48.554;14.454;2023-02-21T10:52:02;8.60;1.00
41939;DHT22;23057;48.554;14.454;2023-02-21T10:55:02;9.00;99.90
41939;DHT22;23057;48.554;14.454;2023-02-21T10:57:42;8.90;99.90
41939;DHT22;23057;48.554;14.454;2023-02-21T11:00:19;8.90;99.90
41939;DHT22;23057;48.554;14.454;2023-02-21T11:03:01;9.10;99.90
41939;DHT22;23057;48.554;14.454;2023-02-21T11:05:49;9.40;99.90
41939;DHT22;23057;48.554;14.454;2023-02-21T11:08:38;9.80;99.90
41939;DHT22;23057;48.554;14.454;2023-02-21T11:11:13;9.90;99.90
41939;DHT22;23057;48.554;14.454;2023-02-21T11:13:43;9.70;99.90
41939;DHT22;23057;48.554;14.454;2023-02-21T11:16:15;9.90;99.90
41939;DHT22;23057;48.554;14.454;2023-02-21T11:19:05;9.70;99.90
41939;DHT22;23057;48.554;14.454;2023-02-21T11:21:36;9.90;99.90
41939;DHT22;23057;48.554;14.454;2023-02-21T11:24:07;9.40;99.90
41939;DHT22;23057;48.554;14.454;2023-02-21T11:26:45;9.50;99.90
41939;DHT22;23057;48.554;14.454;2023-02-21T11:29:22;9.50;99.90
41939;DHT22;23057;48.554;14.454;2023-02-21T11:31:56;9.30;99.90
41939;DHT22;23057;48.554;14.454;2023-02-21T11:34:27;9.50;99.90
41939;DHT22;23057;48.554;14.454;2023-02-21T11:37:02;9.60;99.90
41939;DHT22;23057;48.554;14.454;2023-02-21T11:39:34;9.90;99.90
41939;DHT22;23057;48.554;14.454;2023-02-21T11:42:22;10.20;99.90
41939;DHT22;23057;48.554;14.454;2023-02-21T11:45:09;10.20;99.90
41939;DHT22;23057;48.554;14.454;2023-02-21T11:48:01;10.40;99.90
41939;DHT22;23057;48.554;14.454;2023-02-21T11:50:41;10.70;99.90
41939;DHT22;23057;48.554;14.454;2023-02-21T11:53:22;10.70;99.90
41939;DHT22;23057;48.554;14.454;2023-02-21T11:56:18;10.70;99.90
41939;DHT22;23057;48.554;14.454;2023-02-21T12:25:12;10.80;99.90
41939;DHT22;23057;48.554;14.454;2023-02-21T12:36:42;10.80;99.90
41939;DHT22;23057;48.554;14.454;2023-02-21T12:51:12;10.70;99.90
41939;DHT22;23057;48.554;14.454;2023-02-21T12:53:48;10.80;99.90
41939;DHT22;23057;48.554;14.454;2023-02-21T12:56:37;10.90;99.90
41939;DHT22;23057;48.554;14.454;2023-02-21T12:59:22;11.10;99.90
41939;DHT22;23057;48.554;14.454;2023-02-21T13:02:22;11.20;99.90
41939;DHT22;23057;48.554;14.454;2023-02-21T13:05:02;11.30;99.90
41939;DHT22;23057;48.554;14.454;2023-02-21T13:07:45;11.30;99.90
41939;DHT22;23057;48.554;14.454;2023-02-21T13:10:27;11.50;99.90
41939;DHT22;23057;48.554;14.454;2023-02-21T13:13:09;11.50;99.90
41939;DHT22;23057;48.554;14.454;2023-02-21T13:15:45;11.70;99.90
41939;DHT22;23057;48.554;14.454;2023-02-21T13:18:29;11.90;99.90
41939;DHT22;23057;48.554;14.454;2023-02-21T13:21:30;11.90;99.90
41939;DHT22;23057;48.554;14.454;2023-02-21T13:24:28;11.90;99.90
41939;DHT22;23057;48.554;14.454;2023-02-21T13:30:13;12.00;99.90
41939;DHT22;23057;48.554;14.454;2023-02-21T13:32:58;11.50;94.40
41939;DHT22;23057;48.554;14.454;2023-02-21T13:35:34;11.40;99.90
41939;DHT22;23057;48.554;14.454;2023-02-21T13:38:09;11.50;99.90
41939;DHT22;23057;48.554;14.454;2023-02-21T13:40:46;11.60;99.90
41939;DHT22;23057;48.554;14.454;2023-02-21T13:43:23;11.30;99.90
41939;DHT22;23057;48.554;14.454;2023-02-21T13:57:51;11.30;99.90
41939;DHT22;23057;48.554;14.454;2023-02-21T14:19:25;10.70;99.90
41939;DHT22;23057;48.554;14.454;2023-02-21T14:24:47;10.70;99.90
41939;DHT22;23057;48.554;14.454;2023-02-21T14:27:34;10.80;99.90
41939;DHT22;23057;48.554;14.454;2023-02-21T14:32:44;10.50;99.90
41939;DHT22;23057;48.554;14.454;2023-02-21T14:37:55;10.20;99.90
41939;DHT22;23057;48.554;14.454;2023-02-21T14:52:17;10.10;99.90
41939;DHT22;23057;48.554;14.454;2023-02-21T15:04:11;10.20;1.00
41939;DHT22;23057;48.554;14.454;2023-02-21T15:10:10;10.40;99.90
41939;DHT22;23057;48.554;14.454;2023-02-21T15:13:01;10.40;99.90
41939;DHT22;23057;48.554;14.454;2023-02-21T15:15:35;10.30;1.00
41939;DHT22;23057;48.554;14.454;2023-02-21T15:18:22;10.30;1.00
41939;DHT22;23057;48.554;14.454;2023-02-21T15:21:05;10.20;1.00
41939;DHT22;23057;48.554;14.454;2023-02-21T15:23:42;10.20;1.00
41939;DHT22;23057;48.554;14.454;2023-02-21T15:26:18;10.20;1.00
41939;DHT22;23057;48.554;14.454;2023-02-21T15:29:10;10.20;1.00
41939;DHT22;23057;48.554;14.454;2023-02-21T15:31:52;10.20;1.00
41939;DHT22;23057;48.554;14.454;2023-02-21T15:34:38;10.10;1.00
41939;DHT22;23057;48.554;14.454;2023-02-21T15:39:53;10.00;1.00
41939;DHT22;23057;48.554;14.454;2023-02-21T15:42:28;9.80;1.00
41939;DHT22;23057;48.554;14.454;2023-02-21T15:45:00;9.70;45.80
41939;DHT22;23057;48.554;14.454;2023-02-21T15:47:38;9.70;99.90
41939;DHT22;23057;48.554;14.454;2023-02-21T15:50:13;9.60;99.90
41939;DHT22;23057;48.554;14.454;2023-02-21T15:53:18;9.50;99.90
41939;DHT22;23057;48.554;14.454;2023-02-21T15:55:52;9.40;99.90
41939;DHT22;23057;48.554;14.454;2023-02-21T15:58:24;9.40;99.90
41939;DHT22;23057;48.554;14.454;2023-02-21T16:01:04;9.40;99.90
41939;DHT22;23057;48.554;14.454;2023-02-21T16:03:42;9.30;99.90
41939;DHT22;23057;48.554;14.454;2023-02-21T16:06:28;9.40;99.90
41939;DHT22;23057;48.554;14.454;2023-02-21T16:09:15;9.40;99.90
41939;DHT22;23057;48.554;14.454;2023-02-21T16:12:02;9.40;99.90
41939;DHT22;23057;48.554;14.454;2023-02-21T16:18:03;9.50;99.90
41939;DHT22;23057;48.554;14.454;2023-02-21T16:20:40;9.40;99.90
41939;DHT22;23057;48.554;14.454;2023-02-21T16:26:32;9.40;99.90
41939;DHT22;23057;48.554;14.454;2023-02-21T16:28:45;9.40;99.90
41939;DHT22;23057;48.554;14.454;2023-02-21T16:31:23;9.30;99.90
41939;DHT22;23057;48.554;14.454;2023-02-21T16:34:03;9.20;99.90
41939;DHT22;23057;48.554;14.454;2023-02-21T16:36:34;9.10;99.90
41939;DHT22;23057;48.554;14.454;2023-02-21T16:39:08;8.90;99.90
41939;DHT22;23057;48.554;14.454;2023-02-21T16:41:41;8.90;1.00
41939;DHT22;23057;48.554;14.454;2023-02-21T16:44:11;8.70;1.00
41939;DHT22;23057;48.554;14.454;2023-02-21T16:46:42;8.60;1.00
41939;DHT22;23057;48.554;14.454;2023-02-21T16:49:13;8.50;27.00
41939;DHT22;23057;48.554;14.454;2023-02-21T16:51:44;8.40;93.70
41939;DHT22;23057;48.554;14.454;2023-02-21T16:54:16;8.30;99.90
41939;DHT22;23057;48.554;14.454;2023-02-21T16:56:47;8.10;99.90
41939;DHT22;23057;48.554;14.454;2023-02-21T16:59:21;8.10;99.90
41939;DHT22;23057;48.554;14.454;2023-02-21T17:01:54;8.00;1.00
41939;DHT22;23057;48.554;14.454;2023-02-21T17:04:25;8.00;1.00
41939;DHT22;23057;48.554;14.454;2023-02-21T17:06:56;7.90;1.00
41939;DHT22;23057;48.554;14.454;2023-02-21T17:09:32;7.80;68.60
41939;DHT22;23057;48.554;14.454;2023-02-21T17:12:04;7.80;99.90
41939;DHT22;23057;48.554;14.454;2023-02-21T17:14:36;7.70;99.90
41939;DHT22;23057;48.554;14.454;2023-02-21T17:17:07;7.60;99.90
41939;DHT22;23057;48.554;14.454;2023-02-21T17:19:38;7.50;99.90
41939;DHT22;23057;48.554;14.454;2023-02-21T17:22:08;7.50;99.90
41939;DHT22;23057;48.554;14.454;2023-02-21T17:24:40;7.50;99.90
41939;DHT22;23057;48.554;14.454;2023-02-21T17:27:11;7.40;99.90
41939;DHT22;23057;48.554;14.454;2023-02-21T17:29:42;7.40;99.90
41939;DHT22;23057;48.554;14.454;2023-02-21T17:32:13;7.20;99.90
41939;DHT22;23057;48.554;14.454;2023-02-21T17:34:45;7.10;99.90
41939;DHT22;23057;48.554;14.454;2023-02-21T17:37:15;7.00;99.90
41939;DHT22;23057;48.554;14.454;2023-02-21T17:39:50;6.90;99.90
41939;DHT22;23057;48.554;14.454;2023-02-21T17:42:25;6.80;99.90
41939;DHT22;23057;48.554;14.454;2023-02-21T17:44:56;6.70;99.90
41939;DHT22;23057;48.554;14.454;2023-02-21T17:47:28;6.60;99.90
41939;DHT22;23057;48.554;14.454;2023-02-21T17:49:59;6.60;99.90
41939;DHT22;23057;48.554;14.454;2023-02-21T17:52:30;6.50;99.90
41939;DHT22;23057;48.554;14.454;2023-02-21T17:55:02;6.50;99.90
41939;DHT22;23057;48.554;14.454;2023-02-21T17:57:37;6.40;99.90
41939;DHT22;23057;48.554;14.454;2023-02-21T18:00:11;6.30;99.90
41939;DHT22;23057;48.554;14.454;2023-02-21T18:02:51;6.30;99.90
41939;DHT22;23057;48.554;14.454;2023-02-21T18:05:24;6.20;99.90
41939;DHT22;23057;48.554;14.454;2023-02-21T18:07:55;6.10;99.90
41939;DHT22;23057;48.554;14.454;2023-02-21T18:10:26;6.10;99.90
41939;DHT22;23057;48.554;14.454;2023-02-21T18:12:58;6.00;99.90
41939;DHT22;23057;48.554;14.454;2023-02-21T18:15:29;6.00;99.90
41939;DHT22;23057;48.554;14.454;2023-02-21T18:18:00;5.90;99.90
41939;DHT22;23057;48.554;14.454;2023-02-21T18:20:34;5.90;99.90
41939;DHT22;23057;48.554;14.454;2023-02-21T18:23:05;5.80;99.90
41939;DHT22;23057;48.554;14.454;2023-02-21T18:25:36;5.80;99.90
41939;DHT22;23057;48.554;14.454;2023-02-21T18:28:07;5.70;99.90
41939;DHT22;23057;48.554;14.454;2023-02-21T18:30:37;5.70;99.90
41939;DHT22;23057;48.554;14.454;2023-02-21T18:33:08;5.80;99.90
41939;DHT22;23057;48.554;14.454;2023-02-21T18:35:39;5.80;99.90
41939;DHT22;23057;48.554;14.454;2023-02-21T18:38:10;5.80;99.90
41939;DHT22;23057;48.554;14.454;2023-02-21T18:40:42;5.80;99.90
41939;DHT22;23057;48.554;14.454;2023-02-21T18:43:18;5.80;99.90
41939;DHT22;23057;48.554;14.454;2023-02-21T18:45:53;5.80;99.90
41939;DHT22;23057;48.554;14.454;2023-02-21T18:48:26;5.80;99.90
41939;DHT22;23057;48.554;14.454;2023-02-21T18:50:57;5.60;99.90
41939;DHT22;23057;48.554;14.454;2023-02-21T18:53:27;5.60;99.90
41939;DHT22;23057;48.554;14.454;2023-02-21T18:55:58;5.40;99.90
41939;DHT22;23057;48.554;14.454;2023-02-21T18:58:29;5.20;99.90
41939;DHT22;23057;48.554;14.454;2023-02-21T19:01:00;5.10;99.90
41939;DHT22;23057;48.554;14.454;2023-02-21T19:03:30;4.90;99.90
41939;DHT22;23057;48.554;14.454;2023-02-21T19:06:02;4.80;99.90
41939;DHT22;23057;48.554;14.454;2023-02-21T19:08:33;4.90;99.90
41939;DHT22;23057;48.554;14.454;2023-02-21T19:11:04;4.90;99.90
41939;DHT22;23057;48.554;14.454;2023-02-21T19:13:34;4.90;99.90
41939;DHT22;23057;48.554;14.454;2023-02-21T19:16:05;5.00;99.90
41939;DHT22;23057;48.554;14.454;2023-02-21T19:18:36;5.10;99.90
41939;DHT22;23057;48.554;14.454;2023-02-21T19:21:07;5.20;99.90
41939;DHT22;23057;48.554;14.454;2023-02-21T19:23:41;5.20;99.90
41939;DHT22;23057;48.554;14.454;2023-02-21T19:26:13;5.10;99.90